sensor_id;sensor_type;location;lat;lon;timestamp;P1;durP1;ratioP1;P2;durP2;ratioP2
10347;SDS011;5220;43.192;23.284;2022-10-26T00:01:35;9.02;;;4.90;;
10347;SDS011;5220;43.192;23.284;2022-10-26T00:04:02;12.10;;;5.88;;
10347;SDS011;5220;43.192;23.284;2022-10-26T00:09:37;8.68;;;4.97;;
10347;SDS011;5220;43.192;23.284;2022-10-26T00:12:03;12.00;;;5.10;;
10347;SDS011;5220;43.192;23.284;2022-10-26T00:14:30;9.77;;;5.13;;
10347;SDS011;5220;43.192;23.284;2022-10-26T00:16:57;10.20;;;4.82;;
10347;SDS011;5220;43.192;23.284;2022-10-26T00:22:02;13.48;;;5.45;;
10347;SDS011;5220;43.192;23.284;2022-10-26T00:24:28;14.07;;;5.32;;
10347;SDS011;5220;43.192;23.284;2022-10-26T00:26:57;9.18;;;4.70;;
10347;SDS011;5220;43.192;23.284;2022-10-26T00:29:24;10.05;;;4.93;;
10347;SDS011;5220;43.192;23.284;2022-10-26T00:31:50;9.35;;;4.82;;
10347;SDS011;5220;43.192;23.284;2022-10-26T00:34:17;9.98;;;5.22;;
10347;SDS011;5220;43.192;23.284;2022-10-26T00:36:44;10.63;;;5.55;;
10347;SDS011;5220;43.192;23.284;2022-10-26T00:39:11;11.88;;;4.93;;
10347;SDS011;5220;43.192;23.284;2022-10-26T00:41:39;12.48;;;4.68;;
10347;SDS011;5220;43.192;23.284;2022-10-26T00:47:33;6.10;;;4.38;;
10347;SDS011;5220;43.192;23.284;2022-10-26T00:50:05;15.35;;;5.15;;
10347;SDS011;5220;43.192;23.284;2022-10-26T00:52:35;16.20;;;5.10;;
10347;SDS011;5220;43.192;23.284;2022-10-26T00:55:03;14.05;;;4.90;;
10347;SDS011;5220;43.192;23.284;2022-10-26T00:57:31;11.45;;;4.68;;
10347;SDS011;5220;43.192;23.284;2022-10-26T00:59:59;10.75;;;5.35;;
10347;SDS011;5220;43.192;23.284;2022-10-26T01:02:26;8.50;;;4.65;;
10347;SDS011;5220;43.192;23.284;2022-10-26T01:04:54;13.40;;;4.85;;
10347;SDS011;5220;43.192;23.284;2022-10-26T01:07:22;8.48;;;4.47;;
10347;SDS011;5220;43.192;23.284;2022-10-26T01:09:50;8.98;;;4.80;;
10347;SDS011;5220;43.192;23.284;2022-10-26T01:12:18;8.32;;;5.05;;
10347;SDS011;5220;43.192;23.284;2022-10-26T01:14:45;9.82;;;4.78;;
10347;SDS011;5220;43.192;23.284;2022-10-26T01:17:16;12.00;;;4.50;;
10347;SDS011;5220;43.192;23.284;2022-10-26T01:20:04;10.10;;;4.80;;
10347;SDS011;5220;43.192;23.284;2022-10-26T01:22:58;10.65;;;5.13;;
10347;SDS011;5220;43.192;23.284;2022-10-26T01:28:38;7.32;;;4.50;;
10347;SDS011;5220;43.192;23.284;2022-10-26T01:31:19;8.70;;;4.93;;
10347;SDS011;5220;43.192;23.284;2022-10-26T01:33:55;10.38;;;4.55;;
10347;SDS011;5220;43.192;23.284;2022-10-26T01:36:28;5.97;;;4.22;;
10347;SDS011;5220;43.192;23.284;2022-10-26T01:39:00;8.20;;;4.25;;
10347;SDS011;5220;43.192;23.284;2022-10-26T01:41:34;13.43;;;4.78;;
10347;SDS011;5220;43.192;23.284;2022-10-26T01:44:05;8.98;;;4.70;;
10347;SDS011;5220;43.192;23.284;2022-10-26T01:46:41;11.88;;;4.88;;
10347;SDS011;5220;43.192;23.284;2022-10-26T01:49:12;11.80;;;4.55;;
10347;SDS011;5220;43.192;23.284;2022-10-26T01:51:42;7.63;;;4.25;;
10347;SDS011;5220;43.192;23.284;2022-10-26T01:54:10;12.05;;;4.75;;
10347;SDS011;5220;43.192;23.284;2022-10-26T01:56:37;7.47;;;4.38;;
10347;SDS011;5220;43.192;23.284;2022-10-26T02:01:59;8.23;;;4.22;;
10347;SDS011;5220;43.192;23.284;2022-10-26T02:04:51;8.55;;;4.28;;
10347;SDS011;5220;43.192;23.284;2022-10-26T02:07:31;8.32;;;4.40;;
10347;SDS011;5220;43.192;23.284;2022-10-26T02:10:05;12.68;;;4.80;;
10347;SDS011;5220;43.192;23.284;2022-10-26T02:12:47;8.98;;;3.90;;
10347;SDS011;5220;43.192;23.284;2022-10-26T02:15:20;13.95;;;5.00;;
10347;SDS011;5220;43.192;23.284;2022-10-26T02:17:49;9.55;;;4.70;;
10347;SDS011;5220;43.192;23.284;2022-10-26T02:20:23;9.52;;;4.35;;
10347;SDS011;5220;43.192;23.284;2022-10-26T02:22:53;8.57;;;4.57;;
10347;SDS011;5220;43.192;23.284;2022-10-26T02:25:21;10.27;;;4.32;;
10347;SDS011;5220;43.192;23.284;2022-10-26T02:27:52;6.82;;;4.30;;
10347;SDS011;5220;43.192;23.284;2022-10-26T02:30:22;9.68;;;5.22;;
10347;SDS011;5220;43.192;23.284;2022-10-26T02:32:52;11.65;;;4.88;;
10347;SDS011;5220;43.192;23.284;2022-10-26T02:35:22;9.70;;;4.55;;
10347;SDS011;5220;43.192;23.284;2022-10-26T02:37:52;9.27;;;4.30;;
10347;SDS011;5220;43.192;23.284;2022-10-26T02:40:23;8.95;;;4.13;;
10347;SDS011;5220;43.192;23.284;2022-10-26T02:42:53;10.35;;;4.60;;
10347;SDS011;5220;43.192;23.284;2022-10-26T02:45:23;8.43;;;4.07;;
10347;SDS011;5220;43.192;23.284;2022-10-26T02:47:54;7.63;;;3.67;;
10347;SDS011;5220;43.192;23.284;2022-10-26T02:50:23;11.80;;;4.07;;
10347;SDS011;5220;43.192;23.284;2022-10-26T02:52:57;7.18;;;4.00;;
10347;SDS011;5220;43.192;23.284;2022-10-26T02:55:31;4.25;;;3.47;;
10347;SDS011;5220;43.192;23.284;2022-10-26T02:58:02;6.45;;;3.58;;
10347;SDS011;5220;43.192;23.284;2022-10-26T03:00:33;5.97;;;3.67;;
10347;SDS011;5220;43.192;23.284;2022-10-26T03:03:01;7.63;;;3.70;;
10347;SDS011;5220;43.192;23.284;2022-10-26T03:05:30;7.32;;;4.05;;
10347;SDS011;5220;43.192;23.284;2022-10-26T03:07:57;8.00;;;4.18;;
10347;SDS011;5220;43.192;23.284;2022-10-26T03:10:25;9.55;;;3.90;;
10347;SDS011;5220;43.192;23.284;2022-10-26T03:12:52;4.78;;;3.33;;
10347;SDS011;5220;43.192;23.284;2022-10-26T03:15:18;5.22;;;3.50;;
10347;SDS011;5220;43.192;23.284;2022-10-26T03:17:46;6.07;;;3.67;;
10347;SDS011;5220;43.192;23.284;2022-10-26T03:20:14;5.75;;;4.00;;
10347;SDS011;5220;43.192;23.284;2022-10-26T03:22:41;15.52;;;4.43;;
10347;SDS011;5220;43.192;23.284;2022-10-26T03:25:08;7.57;;;4.00;;
10347;SDS011;5220;43.192;23.284;2022-10-26T03:27:35;5.32;;;3.47;;
10347;SDS011;5220;43.192;23.284;2022-10-26T03:30:14;8.32;;;4.20;;
10347;SDS011;5220;43.192;23.284;2022-10-26T03:32:42;6.25;;;3.50;;
10347;SDS011;5220;43.192;23.284;2022-10-26T03:35:13;6.40;;;4.07;;
10347;SDS011;5220;43.192;23.284;2022-10-26T03:37:42;7.88;;;4.32;;
10347;SDS011;5220;43.192;23.284;2022-10-26T03:40:11;9.07;;;3.78;;
10347;SDS011;5220;43.192;23.284;2022-10-26T03:42:38;8.15;;;3.50;;
10347;SDS011;5220;43.192;23.284;2022-10-26T03:45:08;7.30;;;3.58;;
10347;SDS011;5220;43.192;23.284;2022-10-26T03:47:42;7.88;;;3.72;;
10347;SDS011;5220;43.192;23.284;2022-10-26T03:50:10;5.03;;;3.05;;
10347;SDS011;5220;43.192;23.284;2022-10-26T03:52:45;7.68;;;3.63;;
10347;SDS011;5220;43.192;23.284;2022-10-26T03:55:14;7.72;;;3.20;;
10347;SDS011;5220;43.192;23.284;2022-10-26T03:57:43;6.05;;;3.80;;
10347;SDS011;5220;43.192;23.284;2022-10-26T04:00:11;5.07;;;3.50;;
10347;SDS011;5220;43.192;23.284;2022-10-26T04:02:42;6.45;;;2.67;;
10347;SDS011;5220;43.192;23.284;2022-10-26T04:05:19;5.63;;;3.30;;
10347;SDS011;5220;43.192;23.284;2022-10-26T04:07:52;6.90;;;3.55;;
10347;SDS011;5220;43.192;23.284;2022-10-26T04:10:19;5.00;;;3.10;;
10347;SDS011;5220;43.192;23.284;2022-10-26T04:12:47;8.55;;;3.53;;
10347;SDS011;5220;43.192;23.284;2022-10-26T04:15:25;5.93;;;3.63;;
10347;SDS011;5220;43.192;23.284;2022-10-26T04:17:56;6.93;;;3.00;;
10347;SDS011;5220;43.192;23.284;2022-10-26T04:20:31;7.50;;;3.25;;
10347;SDS011;5220;43.192;23.284;2022-10-26T04:23:02;6.45;;;3.47;;
10347;SDS011;5220;43.192;23.284;2022-10-26T04:25:32;5.55;;;2.80;;
10347;SDS011;5220;43.192;23.284;2022-10-26T04:28:01;8.70;;;3.20;;
10347;SDS011;5220;43.192;23.284;2022-10-26T04:30:30;7.57;;;3.58;;
10347;SDS011;5220;43.192;23.284;2022-10-26T04:33:01;9.98;;;3.03;;
10347;SDS011;5220;43.192;23.284;2022-10-26T04:35:29;5.88;;;3.25;;
10347;SDS011;5220;43.192;23.284;2022-10-26T04:37:57;3.40;;;2.35;;
10347;SDS011;5220;43.192;23.284;2022-10-26T04:40:27;7.40;;;3.03;;
10347;SDS011;5220;43.192;23.284;2022-10-26T04:42:57;5.05;;;2.78;;
10347;SDS011;5220;43.192;23.284;2022-10-26T04:45:33;5.72;;;3.38;;
10347;SDS011;5220;43.192;23.284;2022-10-26T04:48:08;7.70;;;3.33;;
10347;SDS011;5220;43.192;23.284;2022-10-26T04:50:37;9.93;;;4.28;;
10347;SDS011;5220;43.192;23.284;2022-10-26T04:53:06;5.82;;;3.22;;
10347;SDS011;5220;43.192;23.284;2022-10-26T04:55:41;8.13;;;3.78;;
10347;SDS011;5220;43.192;23.284;2022-10-26T04:58:09;6.45;;;3.40;;
10347;SDS011;5220;43.192;23.284;2022-10-26T05:03:14;5.25;;;2.60;;
10347;SDS011;5220;43.192;23.284;2022-10-26T05:05:41;5.47;;;3.05;;
10347;SDS011;5220;43.192;23.284;2022-10-26T05:08:09;5.07;;;3.22;;
10347;SDS011;5220;43.192;23.284;2022-10-26T05:10:36;6.82;;;3.63;;
10347;SDS011;5220;43.192;23.284;2022-10-26T05:13:05;3.35;;;2.70;;
10347;SDS011;5220;43.192;23.284;2022-10-26T05:15:40;7.20;;;2.78;;
10347;SDS011;5220;43.192;23.284;2022-10-26T05:18:07;5.07;;;2.90;;
10347;SDS011;5220;43.192;23.284;2022-10-26T05:20:35;33.22;;;18.98;;
10347;SDS011;5220;43.192;23.284;2022-10-26T05:23:05;8.63;;;3.65;;
10347;SDS011;5220;43.192;23.284;2022-10-26T05:25:34;8.43;;;3.55;;
10347;SDS011;5220;43.192;23.284;2022-10-26T05:28:03;5.95;;;2.42;;
10347;SDS011;5220;43.192;23.284;2022-10-26T05:30:36;5.18;;;2.80;;
10347;SDS011;5220;43.192;23.284;2022-10-26T05:33:03;4.78;;;2.40;;
10347;SDS011;5220;43.192;23.284;2022-10-26T05:35:32;7.88;;;2.58;;
10347;SDS011;5220;43.192;23.284;2022-10-26T05:38:12;4.20;;;2.55;;
10347;SDS011;5220;43.192;23.284;2022-10-26T05:40:45;4.40;;;2.72;;
10347;SDS011;5220;43.192;23.284;2022-10-26T05:43:14;9.50;;;2.63;;
10347;SDS011;5220;43.192;23.284;2022-10-26T05:45:49;6.15;;;2.50;;
10347;SDS011;5220;43.192;23.284;2022-10-26T05:48:17;4.50;;;2.30;;
10347;SDS011;5220;43.192;23.284;2022-10-26T05:50:44;5.22;;;2.10;;
10347;SDS011;5220;43.192;23.284;2022-10-26T05:53:11;2.92;;;2.20;;
10347;SDS011;5220;43.192;23.284;2022-10-26T05:59:02;8.68;;;2.60;;
10347;SDS011;5220;43.192;23.284;2022-10-26T06:01:33;8.10;;;2.60;;
10347;SDS011;5220;43.192;23.284;2022-10-26T06:07:29;10.25;;;3.30;;
10347;SDS011;5220;43.192;23.284;2022-10-26T06:09:57;8.98;;;3.25;;
10347;SDS011;5220;43.192;23.284;2022-10-26T06:15:12;9.32;;;2.70;;
10347;SDS011;5220;43.192;23.284;2022-10-26T06:17:46;12.40;;;3.03;;
10347;SDS011;5220;43.192;23.284;2022-10-26T06:20:27;15.02;;;2.47;;
10347;SDS011;5220;43.192;23.284;2022-10-26T06:23:13;7.78;;;2.80;;
10347;SDS011;5220;43.192;23.284;2022-10-26T06:25:55;9.25;;;2.75;;
10347;SDS011;5220;43.192;23.284;2022-10-26T06:28:33;5.60;;;2.30;;
10347;SDS011;5220;43.192;23.284;2022-10-26T06:31:14;8.07;;;2.55;;
10347;SDS011;5220;43.192;23.284;2022-10-26T06:33:41;27.77;;;4.47;;
10347;SDS011;5220;43.192;23.284;2022-10-26T06:36:23;32.33;;;3.78;;
10347;SDS011;5220;43.192;23.284;2022-10-26T06:38:54;32.30;;;4.45;;
10347;SDS011;5220;43.192;23.284;2022-10-26T06:41:29;19.83;;;3.30;;
10347;SDS011;5220;43.192;23.284;2022-10-26T06:44:03;7.10;;;2.28;;
10347;SDS011;5220;43.192;23.284;2022-10-26T06:49:15;9.35;;;2.25;;
10347;SDS011;5220;43.192;23.284;2022-10-26T06:51:50;11.50;;;3.03;;
10347;SDS011;5220;43.192;23.284;2022-10-26T06:54:25;13.20;;;3.72;;
10347;SDS011;5220;43.192;23.284;2022-10-26T06:57:18;7.80;;;2.50;;
10347;SDS011;5220;43.192;23.284;2022-10-26T06:59:54;6.45;;;1.98;;
10347;SDS011;5220;43.192;23.284;2022-10-26T07:02:28;4.55;;;2.22;;
10347;SDS011;5220;43.192;23.284;2022-10-26T07:05:09;7.45;;;1.80;;
10347;SDS011;5220;43.192;23.284;2022-10-26T07:07:39;9.15;;;2.20;;
10347;SDS011;5220;43.192;23.284;2022-10-26T07:10:08;3.95;;;1.80;;
10347;SDS011;5220;43.192;23.284;2022-10-26T07:12:41;2.92;;;1.77;;
10347;SDS011;5220;43.192;23.284;2022-10-26T07:15:14;4.47;;;1.70;;
10347;SDS011;5220;43.192;23.284;2022-10-26T07:17:44;19.67;;;3.35;;
10347;SDS011;5220;43.192;23.284;2022-10-26T07:20:16;39.88;;;7.20;;
10347;SDS011;5220;43.192;23.284;2022-10-26T07:22:50;41.60;;;8.65;;
10347;SDS011;5220;43.192;23.284;2022-10-26T07:25:25;44.83;;;7.50;;
10347;SDS011;5220;43.192;23.284;2022-10-26T07:28:05;32.45;;;6.70;;
10347;SDS011;5220;43.192;23.284;2022-10-26T07:30:34;23.50;;;5.97;;
10347;SDS011;5220;43.192;23.284;2022-10-26T07:38:41;7.13;;;2.78;;
10347;SDS011;5220;43.192;23.284;2022-10-26T07:47:09;5.28;;;2.88;;
10347;SDS011;5220;43.192;23.284;2022-10-26T07:49:40;4.20;;;2.45;;
10347;SDS011;5220;43.192;23.284;2022-10-26T07:54:55;3.55;;;2.30;;
10347;SDS011;5220;43.192;23.284;2022-10-26T07:57:24;3.47;;;2.10;;
10347;SDS011;5220;43.192;23.284;2022-10-26T07:59:52;3.83;;;1.67;;
10347;SDS011;5220;43.192;23.284;2022-10-26T08:02:19;4.32;;;2.75;;
10347;SDS011;5220;43.192;23.284;2022-10-26T08:04:48;5.88;;;3.00;;
10347;SDS011;5220;43.192;23.284;2022-10-26T08:07:24;4.13;;;2.15;;
10347;SDS011;5220;43.192;23.284;2022-10-26T08:09:55;2.35;;;1.50;;
10347;SDS011;5220;43.192;23.284;2022-10-26T08:12:22;8.32;;;1.88;;
10347;SDS011;5220;43.192;23.284;2022-10-26T08:14:49;5.85;;;1.25;;
10347;SDS011;5220;43.192;23.284;2022-10-26T08:17:17;1.95;;;1.75;;
10347;SDS011;5220;43.192;23.284;2022-10-26T08:19:58;2.58;;;1.38;;
10347;SDS011;5220;43.192;23.284;2022-10-26T08:28:14;8.07;;;1.80;;
10347;SDS011;5220;43.192;23.284;2022-10-26T08:30:41;1.70;;;1.10;;
10347;SDS011;5220;43.192;23.284;2022-10-26T08:33:08;5.05;;;1.55;;
10347;SDS011;5220;43.192;23.284;2022-10-26T08:38:59;8.05;;;1.85;;
10347;SDS011;5220;43.192;23.284;2022-10-26T08:41:28;1.20;;;1.00;;
10347;SDS011;5220;43.192;23.284;2022-10-26T08:44:02;39.95;;;10.05;;
10347;SDS011;5220;43.192;23.284;2022-10-26T08:46:47;18.05;;;7.03;;
10347;SDS011;5220;43.192;23.284;2022-10-26T08:49:18;6.43;;;2.03;;
10347;SDS011;5220;43.192;23.284;2022-10-26T08:51:48;1.83;;;0.98;;
10347;SDS011;5220;43.192;23.284;2022-10-26T08:54:22;1.00;;;0.50;;
10347;SDS011;5220;43.192;23.284;2022-10-26T08:56:58;0.85;;;0.85;;
10347;SDS011;5220;43.192;23.284;2022-10-26T08:59:29;3.38;;;1.10;;
10347;SDS011;5220;43.192;23.284;2022-10-26T09:02:01;3.45;;;0.73;;
10347;SDS011;5220;43.192;23.284;2022-10-26T09:04:29;0.90;;;0.70;;
10347;SDS011;5220;43.192;23.284;2022-10-26T09:06:59;0.47;;;0.40;;
10347;SDS011;5220;43.192;23.284;2022-10-26T09:09:36;1.55;;;0.77;;
10347;SDS011;5220;43.192;23.284;2022-10-26T09:12:12;1.75;;;0.70;;
10347;SDS011;5220;43.192;23.284;2022-10-26T09:14:51;2.33;;;0.90;;
10347;SDS011;5220;43.192;23.284;2022-10-26T09:17:27;3.40;;;1.30;;
10347;SDS011;5220;43.192;23.284;2022-10-26T09:20:17;4.45;;;1.50;;
10347;SDS011;5220;43.192;23.284;2022-10-26T09:22:56;23.25;;;2.72;;
10347;SDS011;5220;43.192;23.284;2022-10-26T09:25:34;6.97;;;3.03;;
10347;SDS011;5220;43.192;23.284;2022-10-26T09:28:17;6.68;;;1.92;;
10347;SDS011;5220;43.192;23.284;2022-10-26T09:30:44;2.40;;;1.25;;
10347;SDS011;5220;43.192;23.284;2022-10-26T09:33:13;3.97;;;2.30;;
10347;SDS011;5220;43.192;23.284;2022-10-26T09:42:23;1.88;;;1.35;;
10347;SDS011;5220;43.192;23.284;2022-10-26T09:44:55;2.53;;;1.40;;
10347;SDS011;5220;43.192;23.284;2022-10-26T09:50:22;3.40;;;1.20;;
10347;SDS011;5220;43.192;23.284;2022-10-26T09:52:51;3.92;;;1.67;;
10347;SDS011;5220;43.192;23.284;2022-10-26T09:55:18;1.58;;;1.23;;
10347;SDS011;5220;43.192;23.284;2022-10-26T09:57:49;4.97;;;1.50;;
10347;SDS011;5220;43.192;23.284;2022-10-26T10:00:19;2.63;;;1.35;;
10347;SDS011;5220;43.192;23.284;2022-10-26T10:02:49;6.97;;;1.25;;
10347;SDS011;5220;43.192;23.284;2022-10-26T10:05:24;4.63;;;1.30;;
10347;SDS011;5220;43.192;23.284;2022-10-26T10:11:06;1.40;;;1.08;;
10347;SDS011;5220;43.192;23.284;2022-10-26T10:13:37;3.45;;;1.10;;
10347;SDS011;5220;43.192;23.284;2022-10-26T10:16:09;2.33;;;1.30;;
10347;SDS011;5220;43.192;23.284;2022-10-26T10:21:59;2.88;;;1.48;;
10347;SDS011;5220;43.192;23.284;2022-10-26T10:24:34;3.13;;;1.13;;
10347;SDS011;5220;43.192;23.284;2022-10-26T10:27:02;1.83;;;1.08;;
10347;SDS011;5220;43.192;23.284;2022-10-26T10:29:32;4.38;;;1.20;;
10347;SDS011;5220;43.192;23.284;2022-10-26T10:32:05;4.22;;;1.27;;
10347;SDS011;5220;43.192;23.284;2022-10-26T10:37:28;2.00;;;1.08;;
10347;SDS011;5220;43.192;23.284;2022-10-26T10:39:57;1.48;;;1.25;;
10347;SDS011;5220;43.192;23.284;2022-10-26T10:42:26;2.53;;;1.02;;
10347;SDS011;5220;43.192;23.284;2022-10-26T10:44:57;1.45;;;1.20;;
10347;SDS011;5220;43.192;23.284;2022-10-26T10:47:27;2.80;;;1.30;;
10347;SDS011;5220;43.192;23.284;2022-10-26T10:49:57;1.92;;;1.30;;
10347;SDS011;5220;43.192;23.284;2022-10-26T10:52:28;1.13;;;1.00;;
10347;SDS011;5220;43.192;23.284;2022-10-26T10:55:00;3.53;;;1.58;;
10347;SDS011;5220;43.192;23.284;2022-10-26T10:57:38;2.60;;;1.20;;
10347;SDS011;5220;43.192;23.284;2022-10-26T11:00:16;5.18;;;1.60;;
10347;SDS011;5220;43.192;23.284;2022-10-26T11:03:03;2.88;;;1.10;;
10347;SDS011;5220;43.192;23.284;2022-10-26T11:09:03;1.20;;;0.90;;
10347;SDS011;5220;43.192;23.284;2022-10-26T11:11:33;1.17;;;1.08;;
10347;SDS011;5220;43.192;23.284;2022-10-26T11:14:04;1.92;;;1.05;;
10347;SDS011;5220;43.192;23.284;2022-10-26T11:16:49;2.10;;;1.48;;
10347;SDS011;5220;43.192;23.284;2022-10-26T11:22:29;1.20;;;1.10;;
10347;SDS011;5220;43.192;23.284;2022-10-26T11:25:02;2.22;;;1.10;;
10347;SDS011;5220;43.192;23.284;2022-10-26T11:27:34;1.80;;;1.08;;
10347;SDS011;5220;43.192;23.284;2022-10-26T11:30:05;3.13;;;0.90;;
10347;SDS011;5220;43.192;23.284;2022-10-26T11:39:04;1.98;;;1.10;;
10347;SDS011;5220;43.192;23.284;2022-10-26T11:41:46;1.42;;;1.20;;
10347;SDS011;5220;43.192;23.284;2022-10-26T11:44:17;0.95;;;0.90;;
10347;SDS011;5220;43.192;23.284;2022-10-26T11:46:52;3.75;;;1.20;;
10347;SDS011;5220;43.192;23.284;2022-10-26T11:49:23;1.17;;;0.95;;
10347;SDS011;5220;43.192;23.284;2022-10-26T11:52:01;1.63;;;0.93;;
10347;SDS011;5220;43.192;23.284;2022-10-26T11:57:52;9.02;;;1.38;;
10347;SDS011;5220;43.192;23.284;2022-10-26T12:00:21;1.50;;;1.08;;
10347;SDS011;5220;43.192;23.284;2022-10-26T12:02:49;2.03;;;0.90;;
10347;SDS011;5220;43.192;23.284;2022-10-26T12:05:31;2.50;;;0.90;;
10347;SDS011;5220;43.192;23.284;2022-10-26T12:08:12;0.85;;;0.85;;
10347;SDS011;5220;43.192;23.284;2022-10-26T12:10:42;3.40;;;0.93;;
10347;SDS011;5220;43.192;23.284;2022-10-26T12:13:18;1.83;;;1.27;;
10347;SDS011;5220;43.192;23.284;2022-10-26T12:15:53;2.30;;;1.33;;
10347;SDS011;5220;43.192;23.284;2022-10-26T12:18:41;1.02;;;0.90;;
10347;SDS011;5220;43.192;23.284;2022-10-26T12:21:12;1.58;;;1.20;;
10347;SDS011;5220;43.192;23.284;2022-10-26T12:23:52;2.47;;;1.30;;
10347;SDS011;5220;43.192;23.284;2022-10-26T12:26:37;1.45;;;0.90;;
10347;SDS011;5220;43.192;23.284;2022-10-26T12:29:12;3.53;;;1.42;;
10347;SDS011;5220;43.192;23.284;2022-10-26T12:41:27;1.80;;;1.70;;
10347;SDS011;5220;43.192;23.284;2022-10-26T12:43:55;3.30;;;1.75;;
10347;SDS011;5220;43.192;23.284;2022-10-26T12:56:29;2.97;;;2.22;;
10347;SDS011;5220;43.192;23.284;2022-10-26T12:59:03;1.58;;;1.40;;
10347;SDS011;5220;43.192;23.284;2022-10-26T13:08:07;0.98;;;0.98;;
10347;SDS011;5220;43.192;23.284;2022-10-26T13:10:36;2.63;;;1.02;;
10347;SDS011;5220;43.192;23.284;2022-10-26T13:13:20;2.22;;;1.20;;
10347;SDS011;5220;43.192;23.284;2022-10-26T13:21:59;0.82;;;0.82;;
10347;SDS011;5220;43.192;23.284;2022-10-26T13:24:26;2.22;;;1.30;;
10347;SDS011;5220;43.192;23.284;2022-10-26T13:33:20;2.15;;;1.55;;
10347;SDS011;5220;43.192;23.284;2022-10-26T13:38:51;9.35;;;4.57;;
10347;SDS011;5220;43.192;23.284;2022-10-26T13:41:21;5.07;;;3.58;;
10347;SDS011;5220;43.192;23.284;2022-10-26T13:43:53;2.80;;;2.53;;
10347;SDS011;5220;43.192;23.284;2022-10-26T13:49:44;9.18;;;2.10;;
10347;SDS011;5220;43.192;23.284;2022-10-26T13:52:14;2.13;;;1.40;;
10347;SDS011;5220;43.192;23.284;2022-10-26T13:58:13;5.20;;;1.98;;
10347;SDS011;5220;43.192;23.284;2022-10-26T14:03:29;1.83;;;1.17;;
10347;SDS011;5220;43.192;23.284;2022-10-26T14:09:19;3.08;;;1.45;;
10347;SDS011;5220;43.192;23.284;2022-10-26T14:11:48;11.30;;;1.88;;
10347;SDS011;5220;43.192;23.284;2022-10-26T14:14:33;8.52;;;2.35;;
10347;SDS011;5220;43.192;23.284;2022-10-26T14:17:02;4.00;;;2.00;;
10347;SDS011;5220;43.192;23.284;2022-10-26T14:19:30;2.22;;;1.60;;
10347;SDS011;5220;43.192;23.284;2022-10-26T14:21:59;6.13;;;1.90;;
10347;SDS011;5220;43.192;23.284;2022-10-26T14:27:37;3.95;;;1.88;;
10347;SDS011;5220;43.192;23.284;2022-10-26T14:30:18;2.25;;;1.80;;
10347;SDS011;5220;43.192;23.284;2022-10-26T14:32:47;4.85;;;2.58;;
10347;SDS011;5220;43.192;23.284;2022-10-26T14:35:28;6.20;;;2.92;;
10347;SDS011;5220;43.192;23.284;2022-10-26T14:38:11;11.25;;;3.72;;
10347;SDS011;5220;43.192;23.284;2022-10-26T14:40:46;8.68;;;3.33;;
10347;SDS011;5220;43.192;23.284;2022-10-26T14:43:17;4.82;;;2.90;;
10347;SDS011;5220;43.192;23.284;2022-10-26T14:48:39;5.32;;;2.28;;
10347;SDS011;5220;43.192;23.284;2022-10-26T14:51:16;11.85;;;2.55;;
10347;SDS011;5220;43.192;23.284;2022-10-26T14:53:55;3.47;;;1.77;;
10347;SDS011;5220;43.192;23.284;2022-10-26T14:59:18;6.13;;;2.20;;
10347;SDS011;5220;43.192;23.284;2022-10-26T15:01:49;2.70;;;1.73;;
10347;SDS011;5220;43.192;23.284;2022-10-26T15:04:31;5.82;;;3.03;;
10347;SDS011;5220;43.192;23.284;2022-10-26T15:09:51;3.45;;;1.95;;
10347;SDS011;5220;43.192;23.284;2022-10-26T15:12:21;11.98;;;6.40;;
10347;SDS011;5220;43.192;23.284;2022-10-26T15:21:37;5.35;;;4.00;;
10347;SDS011;5220;43.192;23.284;2022-10-26T15:24:12;4.35;;;1.90;;
10347;SDS011;5220;43.192;23.284;2022-10-26T15:26:50;7.65;;;6.88;;
10347;SDS011;5220;43.192;23.284;2022-10-26T15:29:34;12.18;;;7.57;;
10347;SDS011;5220;43.192;23.284;2022-10-26T15:32:03;10.40;;;5.45;;
10347;SDS011;5220;43.192;23.284;2022-10-26T15:40:54;5.30;;;3.17;;
10347;SDS011;5220;43.192;23.284;2022-10-26T15:43:22;4.47;;;2.10;;
10347;SDS011;5220;43.192;23.284;2022-10-26T15:49:15;4.43;;;1.73;;
10347;SDS011;5220;43.192;23.284;2022-10-26T15:51:43;7.47;;;1.70;;
10347;SDS011;5220;43.192;23.284;2022-10-26T15:54:11;4.20;;;2.22;;
10347;SDS011;5220;43.192;23.284;2022-10-26T16:00:00;7.13;;;2.42;;
10347;SDS011;5220;43.192;23.284;2022-10-26T16:02:26;5.95;;;2.30;;
10347;SDS011;5220;43.192;23.284;2022-10-26T16:04:54;3.22;;;2.10;;
10347;SDS011;5220;43.192;23.284;2022-10-26T16:07:21;5.43;;;2.45;;
10347;SDS011;5220;43.192;23.284;2022-10-26T16:09:51;4.63;;;1.88;;
10347;SDS011;5220;43.192;23.284;2022-10-26T16:12:19;3.60;;;2.63;;
10347;SDS011;5220;43.192;23.284;2022-10-26T16:14:46;4.85;;;2.90;;
10347;SDS011;5220;43.192;23.284;2022-10-26T16:17:20;6.93;;;3.17;;
10347;SDS011;5220;43.192;23.284;2022-10-26T16:23:26;5.65;;;3.50;;
10347;SDS011;5220;43.192;23.284;2022-10-26T16:28:41;12.68;;;3.65;;
10347;SDS011;5220;43.192;23.284;2022-10-26T16:31:10;6.28;;;3.78;;
10347;SDS011;5220;43.192;23.284;2022-10-26T16:33:37;3.58;;;3.05;;
10347;SDS011;5220;43.192;23.284;2022-10-26T16:39:27;3.22;;;2.67;;
10347;SDS011;5220;43.192;23.284;2022-10-26T16:41:54;3.60;;;2.08;;
10347;SDS011;5220;43.192;23.284;2022-10-26T16:50:14;4.87;;;2.50;;
10347;SDS011;5220;43.192;23.284;2022-10-26T16:52:44;8.48;;;2.22;;
10347;SDS011;5220;43.192;23.284;2022-10-26T16:58:04;9.75;;;6.10;;
10347;SDS011;5220;43.192;23.284;2022-10-26T17:00:30;42.88;;;22.55;;
10347;SDS011;5220;43.192;23.284;2022-10-26T17:02:59;38.70;;;21.20;;
10347;SDS011;5220;43.192;23.284;2022-10-26T17:05:29;36.92;;;22.67;;
10347;SDS011;5220;43.192;23.284;2022-10-26T17:08:03;71.15;;;39.45;;
10347;SDS011;5220;43.192;23.284;2022-10-26T17:13:27;8.05;;;4.57;;
10347;SDS011;5220;43.192;23.284;2022-10-26T17:15:59;5.00;;;3.75;;
10347;SDS011;5220;43.192;23.284;2022-10-26T17:18:27;8.90;;;4.03;;
10347;SDS011;5220;43.192;23.284;2022-10-26T17:20:54;4.88;;;3.80;;
10347;SDS011;5220;43.192;23.284;2022-10-26T17:23:22;4.00;;;2.00;;
10347;SDS011;5220;43.192;23.284;2022-10-26T17:26:02;5.45;;;2.35;;
10347;SDS011;5220;43.192;23.284;2022-10-26T17:28:38;5.45;;;1.45;;
10347;SDS011;5220;43.192;23.284;2022-10-26T17:31:06;2.03;;;1.90;;
10347;SDS011;5220;43.192;23.284;2022-10-26T17:33:35;3.15;;;1.83;;
10347;SDS011;5220;43.192;23.284;2022-10-26T17:36:10;4.57;;;2.53;;
10347;SDS011;5220;43.192;23.284;2022-10-26T17:38:43;1.92;;;1.75;;
10347;SDS011;5220;43.192;23.284;2022-10-26T17:41:13;3.30;;;2.35;;
10347;SDS011;5220;43.192;23.284;2022-10-26T17:47:17;4.50;;;3.20;;
10347;SDS011;5220;43.192;23.284;2022-10-26T17:49:44;4.57;;;3.78;;
10347;SDS011;5220;43.192;23.284;2022-10-26T17:57:28;5.07;;;1.90;;
10347;SDS011;5220;43.192;23.284;2022-10-26T17:59:57;3.42;;;1.58;;
10347;SDS011;5220;43.192;23.284;2022-10-26T18:02:23;4.90;;;1.75;;
10347;SDS011;5220;43.192;23.284;2022-10-26T18:04:51;2.50;;;2.08;;
10347;SDS011;5220;43.192;23.284;2022-10-26T18:07:18;3.03;;;2.20;;
10347;SDS011;5220;43.192;23.284;2022-10-26T18:09:48;3.38;;;1.85;;
10347;SDS011;5220;43.192;23.284;2022-10-26T18:12:18;2.45;;;2.17;;
10347;SDS011;5220;43.192;23.284;2022-10-26T18:14:47;4.78;;;2.80;;
10347;SDS011;5220;43.192;23.284;2022-10-26T18:19:57;2.20;;;1.88;;
10347;SDS011;5220;43.192;23.284;2022-10-26T18:33:56;8.10;;;5.30;;
10347;SDS011;5220;43.192;23.284;2022-10-26T18:36:29;6.47;;;3.70;;
10347;SDS011;5220;43.192;23.284;2022-10-26T18:38:57;4.53;;;2.58;;
10347;SDS011;5220;43.192;23.284;2022-10-26T18:41:24;5.72;;;3.65;;
10347;SDS011;5220;43.192;23.284;2022-10-26T18:43:51;6.85;;;5.35;;
10347;SDS011;5220;43.192;23.284;2022-10-26T18:49:42;5.45;;;4.10;;
10347;SDS011;5220;43.192;23.284;2022-10-26T18:52:09;8.23;;;4.65;;
10347;SDS011;5220;43.192;23.284;2022-10-26T18:58:05;3.33;;;2.40;;